Time;durP1;ratioP1;P1;durP2;ratioP2;P2;SDS_P1;SDS_P2;PMS_P1;PMS_P2;Temp;Humidity;BMP_temperature;BMP_pressure;BME280_temperature;BME280_humidity;BME280_pressure;Samples;Min_cycle;Max_cycle;Signal;HPM_P1;HPM_P2
2021/07/03 00:02:19;;;;;;;;;;;;;;;22.62;59.68;100283.88;5089204;28;1952;-47
2021/07/03 00:04:46;;;;;;;;;;;;;;;22.54;59.62;100290.16;5080157;28;1712;-47
2021/07/03 00:07:20;;;;;;;;;;;;;;;22.49;60.28;100287.09;5077333;28;1726;-48
2021/07/03 00:09:47;;;;;;;;;;;;;;;22.53;59.66;100285.75;5092779;28;2032;-47
2021/07/03 00:12:15;;;;;;;;;;;;;;;22.50;59.00;100275.34;5092989;28;1987;-47
2021/07/03 00:14:42;;;;;;;;;;;;;;;22.52;58.92;100273.31;5090151;28;1759;-47
2021/07/03 00:17:12;;;;;;;;;;;;;;;22.50;58.82;100274.47;5079311;28;1932;-47
2021/07/03 00:19:54;;;;;;;;;;;;;;;22.43;58.52;100274.31;5092701;28;1868;-47
2021/07/03 00:22:37;;;;;;;;;;;;;;;22.39;58.29;100272.97;5086571;28;1986;-47
2021/07/03 00:25:08;;;;;;;;;;;;;;;22.38;58.34;100280.22;5093398;28;1076;-47
2021/07/03 00:27:35;;;;;;;;;;;;;;;22.42;58.68;100299.56;5092972;28;1791;-47
2021/07/03 00:30:02;;;;;;;;;;;;;;;22.56;58.47;100289.94;5092566;28;1976;-47
2021/07/03 00:32:31;;;;;;;;;;;;;;;22.49;58.81;100284.41;5093190;28;1083;-47
2021/07/03 00:34:58;;;;;;;;;;;;;;;22.55;58.09;100294.50;5085364;28;2157;-47
2021/07/03 00:37:25;;;;;;;;;;;;;;;22.59;57.71;100285.06;5089235;28;1896;-47
2021/07/03 00:39:51;;;;;;;;;;;;;;;22.63;57.95;100301.75;5091406;28;1964;-47
2021/07/03 00:42:23;;;;;;;;;;;;;;;22.63;57.83;100293.66;5093500;28;1075;-47
2021/07/03 00:44:51;;;;;;;;;;;;;;;22.57;57.67;100279.00;5091964;28;1987;-47
2021/07/03 00:47:18;;;;;;;;;;;;;;;22.63;57.96;100275.63;5091692;28;1560;-46
2021/07/03 00:49:46;;;;;;;;;;;;;;;22.70;57.79;100288.41;5091815;28;2054;-47
2021/07/03 00:52:13;;;;;;;;;;;;;;;22.70;57.71;100291.97;5086003;28;1670;-47
2021/07/03 00:54:44;;;;;;;;;;;;;;;22.72;57.97;100289.94;5085564;28;1565;-47
2021/07/03 00:57:11;;;;;;;;;;;;;;;22.69;58.68;100298.38;5090163;28;1504;-47
2021/07/03 00:59:40;;;;;;;;;;;;;;;22.61;58.36;100279.50;5084282;28;1904;-47
2021/07/03 01:02:09;;;;;;;;;;;;;;;22.66;58.34;100279.00;5073331;28;1805;-47
2021/07/03 01:04:38;;;;;;;;;;;;;;;22.71;58.61;100280.16;5092323;28;1979;-47
2021/07/03 01:07:05;;;;;;;;;;;;;;;22.59;58.49;100290.47;5076329;28;1062;-47
2021/07/03 01:09:32;;;;;;;;;;;;;;;22.55;58.93;100285.59;5083955;28;1794;-47
2021/07/03 01:11:59;;;;;;;;;;;;;;;22.54;59.11;100273.13;5077592;28;1741;-47
2021/07/03 01:14:27;;;;;;;;;;;;;;;22.50;58.80;100286.13;5089909;28;2091;-47
2021/07/03 01:16:55;;;;;;;;;;;;;;;22.53;59.28;100285.75;5094228;28;1953;-47
2021/07/03 01:19:23;;;;;;;;;;;;;;;22.55;59.47;100288.28;5068846;28;1083;-47
2021/07/03 01:21:55;;;;;;;;;;;;;;;22.57;59.35;100283.56;5090568;28;1686;-47
2021/07/03 01:24:30;;;;;;;;;;;;;;;22.54;59.44;100279.38;5093894;28;1909;-47
2021/07/03 01:27:00;;;;;;;;;;;;;;;22.54;59.39;100282.06;5095924;28;1824;-47
2021/07/03 01:29:28;;;;;;;;;;;;;;;22.48;59.19;100280.03;5082220;28;1832;-47
2021/07/03 01:31:57;;;;;;;;;;;;;;;22.39;58.94;100284.59;5096130;28;1275;-47
2021/07/03 01:34:25;;;;;;;;;;;;;;;22.42;59.34;100278.00;5095292;28;1772;-47
2021/07/03 01:37:05;;;;;;;;;;;;;;;22.50;59.89;100285.25;5095098;28;1719;-47
2021/07/03 01:39:41;;;;;;;;;;;;;;;22.51;59.35;100268.91;5080701;28;1650;-47
2021/07/03 01:42:12;;;;;;;;;;;;;;;22.46;59.39;100273.13;5075789;28;1071;-47
2021/07/03 01:44:53;;;;;;;;;;;;;;;22.51;59.45;100273.47;5075961;28;1996;-47
2021/07/03 01:47:33;;;;;;;;;;;;;;;22.55;59.27;100272.13;5090405;28;1580;-47
2021/07/03 01:50:01;;;;;;;;;;;;;;;22.62;58.79;100273.97;5092341;28;1983;-47
2021/07/03 01:52:32;;;;;;;;;;;;;;;22.51;59.51;100263.53;5094034;28;1677;-46
2021/07/03 01:55:00;;;;;;;;;;;;;;;22.36;59.54;100276.88;5082137;28;1784;-48
2021/07/03 01:57:26;;;;;;;;;;;;;;;22.28;59.10;100276.00;5091354;28;1784;-47
2021/07/03 02:00:01;;;;;;;;;;;;;;;22.22;59.60;100289.13;5095368;28;1439;-47
2021/07/03 02:02:47;;;;;;;;;;;;;;;22.20;59.75;100275.00;5115639;22;1841;-45
2021/07/03 02:05:13;;;;;;;;;;;;;;;22.20;60.10;100276.81;5093592;28;1801;-46
2021/07/03 02:07:46;;;;;;;;;;;;;;;22.08;59.71;100270.91;5093136;28;1876;-46
2021/07/03 02:10:14;;;;;;;;;;;;;;;22.20;58.90;100269.59;5093294;28;1965;-46
2021/07/03 02:12:42;;;;;;;;;;;;;;;22.20;58.93;100275.00;5093418;28;1678;-46
2021/07/03 02:15:10;;;;;;;;;;;;;;;22.22;58.66;100256.81;5093201;28;1602;-46
2021/07/03 02:17:37;;;;;;;;;;;;;;;22.28;59.03;100270.63;5093092;28;1722;-46
2021/07/03 02:20:05;;;;;;;;;;;;;;;22.28;58.69;100281.41;5093549;28;1027;-46
2021/07/03 02:22:34;;;;;;;;;;;;;;;22.24;58.75;100254.81;5093022;28;1594;-45
2021/07/03 02:25:09;;;;;;;;;;;;;;;22.34;58.12;100270.81;5090665;28;2013;-46
2021/07/03 02:27:36;;;;;;;;;;;;;;;22.34;58.05;100280.72;5082332;28;1801;-45
2021/07/03 02:30:07;;;;;;;;;;;;;;;22.27;58.42;100279.72;5093025;28;1772;-45
2021/07/03 02:32:34;;;;;;;;;;;;;;;22.33;58.38;100282.56;5094347;28;997;-46
2021/07/03 02:35:02;;;;;;;;;;;;;;;22.26;58.46;100286.09;5092743;28;1727;-46
2021/07/03 02:37:29;;;;;;;;;;;;;;;22.29;58.00;100291.19;5092697;28;1884;-46
2021/07/03 02:39:59;;;;;;;;;;;;;;;22.19;57.96;100277.84;5091719;28;1675;-45
2021/07/03 02:42:32;;;;;;;;;;;;;;;22.23;58.62;100280.03;5094191;28;985;-46
2021/07/03 02:44:58;;;;;;;;;;;;;;;22.28;58.15;100287.63;5093018;28;1974;-46
2021/07/03 02:47:26;;;;;;;;;;;;;;;22.38;57.73;100282.06;5089796;28;1896;-45
2021/07/03 02:50:00;;;;;;;;;;;;;;;22.41;58.11;100292.50;5080479;28;1533;-46
2021/07/03 02:52:28;;;;;;;;;;;;;;;22.39;58.29;100284.59;5092617;28;1860;-46
2021/07/03 02:54:55;;;;;;;;;;;;;;;22.34;58.32;100289.66;5092478;28;1815;-45
2021/07/03 02:57:21;;;;;;;;;;;;;;;22.18;58.53;100286.91;5092751;28;1746;-45
2021/07/03 02:59:53;;;;;;;;;;;;;;;22.13;59.15;100292.81;5092352;28;1508;-46
2021/07/03 03:02:21;;;;;;;;;;;;;;;22.30;58.58;100295.53;5092076;28;1919;-45
2021/07/03 03:04:48;;;;;;;;;;;;;;;22.33;58.14;100295.22;5092000;28;1902;-46
2021/07/03 03:07:22;;;;;;;;;;;;;;;22.28;58.53;100297.56;5091575;28;1493;-46
2021/07/03 03:09:49;;;;;;;;;;;;;;;22.29;58.25;100299.25;5092877;28;1037;-46
2021/07/03 03:12:16;;;;;;;;;;;;;;;22.22;58.39;100310.66;5089527;28;1742;-46
2021/07/03 03:14:46;;;;;;;;;;;;;;;22.23;58.38;100296.19;5091720;28;1615;-46
2021/07/03 03:17:29;;;;;;;;;;;;;;;22.14;58.27;100318.72;5069446;28;1798;-46
2021/07/03 03:20:01;;;;;;;;;;;;;;;22.09;58.45;100331.03;5072431;28;1889;-46
2021/07/03 03:22:29;;;;;;;;;;;;;;;22.19;59.25;100320.94;5092608;28;1550;-46
2021/07/03 03:24:57;;;;;;;;;;;;;;;22.23;59.50;100328.50;5072183;28;1906;-46
2021/07/03 03:27:24;;;;;;;;;;;;;;;22.26;59.49;100323.81;5076931;28;1758;-46
2021/07/03 03:29:52;;;;;;;;;;;;;;;22.21;59.26;100318.91;5091637;28;1785;-46
2021/07/03 03:32:19;;;;;;;;;;;;;;;22.21;59.50;100319.75;5092316;28;1092;-46
2021/07/03 03:34:47;;;;;;;;;;;;;;;22.27;59.31;100317.44;5089753;28;1985;-46
2021/07/03 03:37:18;;;;;;;;;;;;;;;22.19;59.31;100316.38;5091572;28;1785;-45
2021/07/03 03:39:48;;;;;;;;;;;;;;;22.14;59.31;100329.50;5091782;28;1598;-45
2021/07/03 03:42:16;;;;;;;;;;;;;;;22.18;59.19;100319.22;5092835;28;1095;-46
2021/07/03 03:44:44;;;;;;;;;;;;;;;22.21;58.56;100337.75;5091703;28;1901;-45
2021/07/03 03:47:11;;;;;;;;;;;;;;;22.01;59.05;100329.16;5083818;28;2237;-47
2021/07/03 03:49:39;;;;;;;;;;;;;;;22.11;59.12;100327.16;5083896;28;1634;-46
2021/07/03 03:52:06;;;;;;;;;;;;;;;22.14;58.77;100313.34;5091426;28;2045;-46
2021/07/03 03:54:34;;;;;;;;;;;;;;;22.16;59.12;100322.13;5091779;28;1691;-46
2021/07/03 03:59:49;;;;;;;;;;;;;;;22.32;58.38;100339.31;5072474;28;1578;-46
2021/07/03 04:02:16;;;;;;;;;;;;;;;22.11;58.70;100340.63;5079313;28;1666;-46
2021/07/03 04:04:42;;;;;;;;;;;;;;;21.90;59.26;100359.06;5091047;28;1996;-46
2021/07/03 04:07:13;;;;;;;;;;;;;;;21.96;58.98;100334.19;5092154;28;1085;-46
2021/07/03 04:09:44;;;;;;;;;;;;;;;22.09;59.05;100337.25;5091785;28;1165;-46
2021/07/03 04:12:11;;;;;;;;;;;;;;;22.02;58.79;100330.81;5033803;28;1984;-45
2021/07/03 04:14:38;;;;;;;;;;;;;;;21.75;59.33;100340.88;5072890;28;1695;-46
2021/07/03 04:17:18;;;;;;;;;;;;;;;22.03;58.40;100327.16;5091455;28;2175;-46
2021/07/03 04:19:46;;;;;;;;;;;;;;;22.17;58.11;100344.50;5090562;28;1599;-46
2021/07/03 04:22:25;;;;;;;;;;;;;;;22.23;58.52;100331.19;5092274;28;1294;-47
2021/07/03 04:24:55;;;;;;;;;;;;;;;22.28;58.49;100332.56;5089636;28;1905;-45
2021/07/03 04:27:22;;;;;;;;;;;;;;;22.20;58.74;100353.09;5086042;28;1769;-46
2021/07/03 04:29:48;;;;;;;;;;;;;;;22.10;58.49;100348.84;5086903;28;1643;-46
2021/07/03 04:32:14;;;;;;;;;;;;;;;22.19;57.87;100334.41;5091254;28;1249;-45
2021/07/03 04:34:42;;;;;;;;;;;;;;;22.29;58.65;100339.66;5090830;28;2040;-47
2021/07/03 04:37:09;;;;;;;;;;;;;;;22.15;59.17;100341.97;5090832;28;1751;-46
2021/07/03 04:39:35;;;;;;;;;;;;;;;22.30;58.77;100349.41;5090153;28;1577;-46
2021/07/03 04:42:03;;;;;;;;;;;;;;;22.35;58.75;100355.16;5084433;28;1058;-49
2021/07/03 04:44:30;;;;;;;;;;;;;;;22.22;59.16;100337.59;5093434;28;1913;-46
2021/07/03 04:46:56;;;;;;;;;;;;;;;22.46;59.13;100354.78;5027244;28;1492;-45
2021/07/03 04:49:23;;;;;;;;;;;;;;;22.71;57.88;100342.16;5050487;28;11117;-45
2021/07/03 04:51:49;;;;;;;;;;;;;;;22.86;57.88;100350.41;5042085;28;1661;-45
2021/07/03 04:54:16;;;;;;;;;;;;;;;22.98;57.90;100359.81;5042685;28;1749;-46
2021/07/03 04:56:42;;;;;;;;;;;;;;;22.99;58.10;100366.88;5040529;28;1804;-45
2021/07/03 04:59:10;;;;;;;;;;;;;;;23.10;57.94;100351.38;5042051;28;715;-46
2021/07/03 05:01:36;;;;;;;;;;;;;;;23.14;58.47;100358.09;5043765;28;1686;-45
2021/07/03 05:04:03;;;;;;;;;;;;;;;23.13;58.61;100351.88;5043810;28;1943;-44
2021/07/03 05:06:29;;;;;;;;;;;;;;;23.22;58.50;100363.50;5042387;28;1586;-45
2021/07/03 05:08:56;;;;;;;;;;;;;;;23.22;58.38;100361.63;5041572;28;1671;-44
2021/07/03 05:11:22;;;;;;;;;;;;;;;23.26;58.50;100372.94;5034111;28;1055;-46
2021/07/03 05:13:49;;;;;;;;;;;;;;;23.32;58.68;100345.25;5039342;28;1541;-45
2021/07/03 05:16:17;;;;;;;;;;;;;;;23.37;58.85;100364.44;5045829;28;1643;-46
2021/07/03 05:18:43;;;;;;;;;;;;;;;23.42;58.71;100362.06;5041373;28;1600;-45
2021/07/03 05:21:10;;;;;;;;;;;;;;;23.43;58.79;100342.16;5041095;28;1765;-45
2021/07/03 05:23:36;;;;;;;;;;;;;;;23.46;59.01;100335.59;5041359;28;1565;-45
2021/07/03 05:26:02;;;;;;;;;;;;;;;23.51;59.05;100359.34;5045865;28;1906;-45
2021/07/03 05:28:29;;;;;;;;;;;;;;;23.48;59.17;100354.31;5045621;28;1797;-44
2021/07/03 05:30:56;;;;;;;;;;;;;;;23.52;59.08;100361.88;5040980;28;1723;-44
2021/07/03 05:33:24;;;;;;;;;;;;;;;23.57;59.31;100355.94;5033973;28;1769;-44
2021/07/03 05:35:51;;;;;;;;;;;;;;;23.58;59.35;100350.38;5042285;28;1096;-45
2021/07/03 05:38:17;;;;;;;;;;;;;;;23.56;59.56;100349.72;5043225;28;1859;-45
2021/07/03 05:40:44;;;;;;;;;;;;;;;23.59;59.33;100357.44;5043062;28;1611;-45
2021/07/03 05:43:10;;;;;;;;;;;;;;;23.63;59.38;100366.03;5033957;28;1736;-45
2021/07/03 05:45:37;;;;;;;;;;;;;;;23.66;59.48;100345.97;5041225;28;1977;-46
2021/07/03 05:48:04;;;;;;;;;;;;;;;23.66;59.64;100344.09;5039769;28;1556;-47
2021/07/03 05:50:32;;;;;;;;;;;;;;;23.68;59.80;100347.47;5039543;28;1399;-46
2021/07/03 05:52:58;;;;;;;;;;;;;;;23.68;59.94;100339.34;5044005;28;1820;-45
2021/07/03 05:55:25;;;;;;;;;;;;;;;23.69;59.62;100338.31;5041867;28;1716;-46
2021/07/03 05:57:51;;;;;;;;;;;;;;;23.73;59.79;100357.72;5036771;28;1814;-44
2021/07/03 06:00:18;;;;;;;;;;;;;;;23.74;60.02;100343.22;5038986;28;1514;-46
2021/07/03 06:02:45;;;;;;;;;;;;;;;23.73;60.40;100350.44;5041071;28;1562;-47
2021/07/03 06:05:11;;;;;;;;;;;;;;;23.74;60.24;100349.44;5042711;28;1977;-46
2021/07/03 06:07:39;;;;;;;;;;;;;;;23.76;60.13;100347.41;5041298;28;1598;-44
2021/07/03 06:10:06;;;;;;;;;;;;;;;23.80;60.30;100351.47;5041150;28;1120;-45
2021/07/03 06:12:33;;;;;;;;;;;;;;;23.80;60.73;100354.16;5048904;28;2770;-45
2021/07/03 06:14:59;;;;;;;;;;;;;;;23.85;60.63;100355.50;5046431;28;1976;-44
2021/07/03 06:17:26;;;;;;;;;;;;;;;23.87;60.56;100358.84;5042278;28;2018;-45
2021/07/03 06:19:52;;;;;;;;;;;;;;;23.83;60.73;100347.56;5050935;28;1556;-45
2021/07/03 06:22:20;;;;;;;;;;;;;;;23.86;60.74;100341.00;5048470;28;1418;-45
2021/07/03 06:24:48;;;;;;;;;;;;;;;23.91;60.78;100342.09;5041878;28;1910;-45
2021/07/03 06:27:15;;;;;;;;;;;;;;;23.95;60.94;100343.44;5032444;28;1557;-45
2021/07/03 06:29:41;;;;;;;;;;;;;;;23.91;61.02;100349.38;5035198;28;1537;-45
2021/07/03 06:32:08;;;;;;;;;;;;;;;23.91;61.49;100338.56;5040230;28;1106;-46
2021/07/03 06:34:35;;;;;;;;;;;;;;;23.89;61.80;100340.63;5033748;28;1836;-46
2021/07/03 06:37:02;;;;;;;;;;;;;;;23.89;61.48;100335.22;5041000;28;1781;-45
2021/07/03 06:39:28;;;;;;;;;;;;;;;23.97;61.24;100348.66;5038838;28;1023;-46
2021/07/03 06:41:56;;;;;;;;;;;;;;;23.95;61.07;100335.34;5034653;28;1908;-44
2021/07/03 06:44:23;;;;;;;;;;;;;;;23.97;60.88;100337.84;5040676;28;1984;-45
2021/07/03 06:46:49;;;;;;;;;;;;;;;23.95;61.29;100340.72;5041762;28;2037;-46
2021/07/03 06:49:16;;;;;;;;;;;;;;;23.92;61.69;100337.56;5041455;28;1792;-47
2021/07/03 06:51:43;;;;;;;;;;;;;;;23.94;61.28;100349.03;5039786;28;1713;-45
2021/07/03 06:54:10;;;;;;;;;;;;;;;23.94;61.59;100343.63;5039729;28;1650;-45
2021/07/03 06:56:37;;;;;;;;;;;;;;;23.90;61.59;100337.75;5040616;28;1000;-45
2021/07/03 06:59:05;;;;;;;;;;;;;;;23.93;61.79;100347.34;5042456;28;1951;-46
2021/07/03 07:01:31;;;;;;;;;;;;;;;23.88;61.82;100345.19;5041459;28;1792;-45
2021/07/03 07:03:58;;;;;;;;;;;;;;;23.91;61.85;100360.19;5040176;28;2067;-46
2021/07/03 07:06:24;;;;;;;;;;;;;;;23.89;61.71;100359.53;5039140;28;1922;-44
2021/07/03 07:08:50;;;;;;;;;;;;;;;23.90;62.13;100347.72;5039859;28;1718;-45
2021/07/03 07:11:17;;;;;;;;;;;;;;;23.89;62.23;100346.00;5034520;28;1177;-45
2021/07/03 07:13:43;;;;;;;;;;;;;;;23.90;62.19;100355.81;5036378;28;1693;-45
2021/07/03 07:16:11;;;;;;;;;;;;;;;23.90;62.31;100345.00;5043754;28;1794;-45
2021/07/03 07:18:38;;;;;;;;;;;;;;;23.90;61.79;100337.75;5036067;28;1827;-45
2021/07/03 07:21:04;;;;;;;;;;;;;;;23.94;61.84;100349.03;5041228;28;1737;-47
2021/07/03 07:23:31;;;;;;;;;;;;;;;23.91;62.16;100343.97;5038604;28;1725;-45
2021/07/03 07:25:57;;;;;;;;;;;;;;;23.94;62.21;100352.56;5046644;28;1910;-45
2021/07/03 07:28:24;;;;;;;;;;;;;;;23.95;61.95;100339.91;5044634;28;1706;-45
2021/07/03 07:30:50;;;;;;;;;;;;;;;23.96;62.16;100330.78;5044178;28;1645;-45
2021/07/03 07:33:18;;;;;;;;;;;;;;;23.96;62.38;100347.00;5046100;28;1255;-45
2021/07/03 07:35:44;;;;;;;;;;;;;;;23.96;62.34;100342.44;5040616;28;1948;-46
2021/07/03 07:38:11;;;;;;;;;;;;;;;23.97;62.42;100332.47;5043911;28;1812;-45
2021/07/03 07:40:37;;;;;;;;;;;;;;;24.01;62.37;100344.59;5041404;28;1801;-45
2021/07/03 07:43:04;;;;;;;;;;;;;;;24.02;62.70;100338.19;5030717;28;989;-45
2021/07/03 07:45:31;;;;;;;;;;;;;;;24.05;62.32;100340.50;5040404;28;2022;-47
2021/07/03 07:47:58;;;;;;;;;;;;;;;24.04;62.47;100340.72;5043654;28;1780;-45
2021/07/03 07:50:26;;;;;;;;;;;;;;;24.04;62.47;100344.25;5035494;28;1925;-45
2021/07/03 07:52:52;;;;;;;;;;;;;;;24.04;62.59;100346.09;5040216;28;1785;-48
2021/07/03 07:55:19;;;;;;;;;;;;;;;24.06;62.30;100339.50;5039013;28;1687;-45
2021/07/03 07:57:45;;;;;;;;;;;;;;;24.04;62.87;100355.03;5039346;28;1879;-44
2021/07/03 08:00:14;;;;;;;;;;;;;;;24.03;62.61;100334.44;5037021;28;1848;-45
2021/07/03 08:02:40;;;;;;;;;;;;;;;24.06;62.53;100338.66;5040218;28;1642;-46
2021/07/03 08:05:07;;;;;;;;;;;;;;;24.01;62.59;100347.28;5040189;28;1914;-45
2021/07/03 08:07:35;;;;;;;;;;;;;;;24.03;62.88;100353.34;5036639;28;2841;-46
2021/07/03 08:10:01;;;;;;;;;;;;;;;24.02;62.93;100346.28;5039700;28;1071;-46
2021/07/03 08:12:28;;;;;;;;;;;;;;;24.02;62.79;100339.00;5032704;28;1850;-45
2021/07/03 08:14:54;;;;;;;;;;;;;;;24.09;62.59;100344.53;5040052;28;1696;-45
2021/07/03 08:17:21;;;;;;;;;;;;;;;24.10;62.69;100338.13;5042145;28;1816;-45
2021/07/03 08:19:47;;;;;;;;;;;;;;;24.12;62.79;100346.03;5042591;28;1720;-45
2021/07/03 08:22:14;;;;;;;;;;;;;;;24.06;62.93;100336.78;5042669;28;1713;-46
2021/07/03 08:24:42;;;;;;;;;;;;;;;24.07;62.55;100334.94;5043105;28;1135;-45
2021/07/03 08:27:08;;;;;;;;;;;;;;;24.08;63.04;100334.75;5049622;28;1905;-45
2021/07/03 08:29:35;;;;;;;;;;;;;;;24.04;63.30;100343.41;5041449;28;1948;-45
2021/07/03 08:32:01;;;;;;;;;;;;;;;24.08;62.94;100342.03;5042699;28;1103;-45
2021/07/03 08:34:28;;;;;;;;;;;;;;;24.04;63.05;100338.00;5035841;28;1897;-45
2021/07/03 08:36:54;;;;;;;;;;;;;;;24.03;63.32;100337.13;5044917;28;1868;-45
2021/07/03 08:39:20;;;;;;;;;;;;;;;24.05;63.20;100345.91;5041449;28;1962;-46
2021/07/03 08:41:48;;;;;;;;;;;;;;;24.05;63.34;100339.66;5040909;28;1082;-45
2021/07/03 08:44:16;;;;;;;;;;;;;;;24.09;63.65;100352.63;5036373;28;1724;-45
2021/07/03 08:46:43;;;;;;;;;;;;;;;24.05;63.76;100340.50;5039508;28;2081;-46
2021/07/03 08:49:10;;;;;;;;;;;;;;;24.04;63.50;100336.13;5043952;28;1833;-45
2021/07/03 08:51:36;;;;;;;;;;;;;;;24.02;63.39;100333.59;5042385;28;1873;-45
2021/07/03 08:54:05;;;;;;;;;;;;;;;24.05;63.82;100345.06;5043380;28;1547;-46
2021/07/03 08:56:32;;;;;;;;;;;;;;;24.03;64.05;100331.75;5049296;28;1213;-45
2021/07/03 08:59:00;;;;;;;;;;;;;;;24.06;63.14;100330.56;5043708;28;1748;-44
2021/07/03 09:01:26;;;;;;;;;;;;;;;24.07;63.26;100333.06;5046642;28;1817;-45
2021/07/03 09:03:53;;;;;;;;;;;;;;;24.08;63.86;100326.66;5045058;28;1756;-45
2021/07/03 09:06:29;;;;;;;;;;;;;;;24.11;63.75;100328.97;5047267;28;1910;-45
2021/07/03 09:08:55;;;;;;;;;;;;;;;24.06;63.61;100326.00;5046699;28;1449;-45
2021/07/03 09:11:22;;;;;;;;;;;;;;;24.06;63.57;100320.59;5050332;28;1320;-45
2021/07/03 09:13:57;;;;;;;;;;;;;;;24.09;63.46;100322.09;5044483;28;1832;-45
2021/07/03 09:16:31;;;;;;;;;;;;;;;24.08;63.26;100315.00;5043407;28;1849;-45
2021/07/03 09:18:57;;;;;;;;;;;;;;;24.04;63.51;100306.44;5045480;28;1540;-45
2021/07/03 09:21:24;;;;;;;;;;;;;;;24.05;63.63;100315.34;5041278;28;1880;-45
2021/07/03 09:23:50;;;;;;;;;;;;;;;24.04;63.74;100298.31;5041784;28;1641;-45
2021/07/03 09:26:17;;;;;;;;;;;;;;;24.04;63.68;100301.03;5035019;28;1910;-45
2021/07/03 09:28:44;;;;;;;;;;;;;;;24.03;63.98;100307.44;5042430;28;1942;-45
2021/07/03 09:31:12;;;;;;;;;;;;;;;24.05;63.96;100308.09;5042306;28;1642;-44
2021/07/03 09:33:40;;;;;;;;;;;;;;;24.06;63.81;100307.09;5032147;28;1716;-46
2021/07/03 09:36:08;;;;;;;;;;;;;;;24.07;64.10;100303.34;5039809;28;1671;-46
2021/07/03 09:38:36;;;;;;;;;;;;;;;24.07;63.72;100292.53;5043820;28;1002;-45
2021/07/03 09:41:06;;;;;;;;;;;;;;;24.08;63.80;100280.72;5043179;28;1988;-45
2021/07/03 09:43:32;;;;;;;;;;;;;;;24.06;64.14;100298.97;5031397;28;2055;-46
2021/07/03 09:45:59;;;;;;;;;;;;;;;24.09;63.69;100293.19;5042154;28;1910;-45
2021/07/03 09:48:25;;;;;;;;;;;;;;;24.07;63.90;100289.00;5043567;28;1830;-45
2021/07/03 09:50:53;;;;;;;;;;;;;;;24.08;64.30;100290.69;5043015;28;1841;-45
2021/07/03 09:53:20;;;;;;;;;;;;;;;24.08;64.04;100290.69;5041798;28;1977;-46
2021/07/03 09:55:46;;;;;;;;;;;;;;;24.05;64.65;100283.78;5038447;28;1714;-46
2021/07/03 09:58:13;;;;;;;;;;;;;;;24.09;64.45;100290.50;5042720;28;1792;-45
2021/07/03 10:00:40;;;;;;;;;;;;;;;24.05;64.04;100291.88;5042083;28;1819;-44
2021/07/03 10:03:07;;;;;;;;;;;;;;;24.09;63.92;100285.09;5038248;28;1697;-45
2021/07/03 10:05:35;;;;;;;;;;;;;;;24.09;64.21;100270.75;5038138;28;1971;-46
2021/07/03 10:08:05;;;;;;;;;;;;;;;24.09;64.28;100279.69;5042221;28;1691;-45
2021/07/03 10:10:32;;;;;;;;;;;;;;;24.09;64.36;100287.78;5041554;28;1104;-44
2021/07/03 10:13:02;;;;;;;;;;;;;;;24.08;64.12;100280.72;5044964;28;1893;-45
2021/07/03 10:15:29;;;;;;;;;;;;;;;24.05;64.00;100283.78;5040616;28;2030;-45
2021/07/03 10:18:07;;;;;;;;;;;;;;;24.06;64.43;100276.53;5040944;28;1750;-45
2021/07/03 10:20:34;;;;;;;;;;;;;;;24.06;64.45;100304.38;5039635;28;11656;-46
2021/07/03 10:23:00;;;;;;;;;;;;;;;24.04;64.53;100275.88;5038012;28;1771;-46
2021/07/03 10:25:33;;;;;;;;;;;;;;;24.02;64.86;100276.88;5039200;28;2016;-45
2021/07/03 10:28:00;;;;;;;;;;;;;;;24.06;64.57;100260.34;5036213;28;1758;-45
2021/07/03 10:30:28;;;;;;;;;;;;;;;24.02;64.59;100257.97;5039953;28;1769;-45
2021/07/03 10:32:56;;;;;;;;;;;;;;;24.01;64.63;100259.03;5036569;28;1083;-45
2021/07/03 10:35:23;;;;;;;;;;;;;;;24.00;64.79;100262.72;5040272;28;1853;-45
2021/07/03 10:37:49;;;;;;;;;;;;;;;24.02;64.83;100270.66;5044093;28;2241;-45
2021/07/03 10:40:17;;;;;;;;;;;;;;;24.05;64.80;100272.97;5038167;28;2338;-45
2021/07/03 10:42:45;;;;;;;;;;;;;;;24.06;64.57;100263.03;5044992;28;1090;-45
2021/07/03 10:45:12;;;;;;;;;;;;;;;24.05;64.87;100266.75;5039826;28;1893;-45
2021/07/03 10:47:40;;;;;;;;;;;;;;;24.07;64.69;100252.03;5046523;28;1898;-45
2021/07/03 10:50:18;;;;;;;;;;;;;;;24.05;64.68;100251.38;5044204;28;1814;-46
2021/07/03 10:52:45;;;;;;;;;;;;;;;24.06;64.90;100241.44;5035622;28;1637;-46
2021/07/03 10:55:12;;;;;;;;;;;;;;;24.08;64.54;100256.41;5043819;28;1715;-45
2021/07/03 10:57:43;;;;;;;;;;;;;;;24.04;64.63;100246.16;5035618;28;1655;-45
2021/07/03 11:00:12;;;;;;;;;;;;;;;24.08;64.44;100252.88;5040412;28;1852;-45
2021/07/03 11:02:39;;;;;;;;;;;;;;;24.07;64.79;100256.59;5041608;28;1540;-45
2021/07/03 11:05:11;;;;;;;;;;;;;;;24.05;64.76;100255.94;5041885;28;1859;-45
2021/07/03 11:07:37;;;;;;;;;;;;;;;24.05;64.75;100247.84;5039717;28;1898;-46
2021/07/03 11:10:05;;;;;;;;;;;;;;;24.03;64.56;100250.72;5040102;28;992;-45
2021/07/03 11:12:31;;;;;;;;;;;;;;;24.04;64.82;100252.41;5043424;28;1615;-45
2021/07/03 11:14:59;;;;;;;;;;;;;;;24.03;64.77;100242.59;5041761;28;1578;-45
2021/07/03 11:17:27;;;;;;;;;;;;;;;24.11;64.79;100253.34;5044995;28;1611;-45
2021/07/03 11:19:55;;;;;;;;;;;;;;;24.09;64.76;100247.28;5042361;28;1336;-45
2021/07/03 11:22:23;;;;;;;;;;;;;;;24.11;64.54;100239.84;5042031;28;1729;-45
2021/07/03 11:24:51;;;;;;;;;;;;;;;24.09;65.03;100241.88;5044328;28;1182;-45
2021/07/03 11:27:27;;;;;;;;;;;;;;;24.09;64.58;100236.47;5045846;28;1901;-45
2021/07/03 11:29:54;;;;;;;;;;;;;;;24.06;64.79;100236.84;5041409;28;1905;-45
2021/07/03 11:32:20;;;;;;;;;;;;;;;24.08;64.87;100247.47;5038000;28;991;-45
2021/07/03 11:34:55;;;;;;;;;;;;;;;24.09;64.52;100228.38;5034799;28;1858;-45
2021/07/03 11:37:25;;;;;;;;;;;;;;;24.11;64.57;100239.00;5038789;28;1710;-45
2021/07/03 11:39:52;;;;;;;;;;;;;;;24.10;64.82;100232.75;5040138;28;1707;-44
2021/07/03 11:42:25;;;;;;;;;;;;;;;24.09;64.66;100220.25;5045625;28;1310;-46
2021/07/03 11:44:52;;;;;;;;;;;;;;;24.10;64.94;100224.66;5042874;28;1585;-46
2021/07/03 11:47:18;;;;;;;;;;;;;;;24.12;64.74;100232.59;5038873;28;1902;-45
2021/07/03 11:49:45;;;;;;;;;;;;;;;24.11;64.38;100230.91;5039386;28;1691;-46
2021/07/03 11:52:13;;;;;;;;;;;;;;;24.13;64.73;100239.66;5040556;28;1743;-44
2021/07/03 11:54:39;;;;;;;;;;;;;;;24.10;64.30;100232.75;5044164;28;1647;-45
2021/07/03 11:57:06;;;;;;;;;;;;;;;24.09;64.60;100235.66;5040105;28;1616;-44
2021/07/03 11:59:33;;;;;;;;;;;;;;;24.12;64.71;100244.22;5038897;28;1641;-45
2021/07/03 12:02:14;;;;;;;;;;;;;;;24.13;64.65;100251.31;5016058;28;1681;-45
2021/07/03 12:04:41;;;;;;;;;;;;;;;24.10;64.84;100240.88;5039797;28;1017;-46
2021/07/03 12:07:07;;;;;;;;;;;;;;;24.11;64.67;100245.22;5032316;28;1906;-45
2021/07/03 12:09:36;;;;;;;;;;;;;;;24.11;64.46;100245.22;5037714;28;1077;-45
2021/07/03 12:12:02;;;;;;;;;;;;;;;24.10;64.73;100234.63;5032121;28;2109;-45
2021/07/03 12:14:29;;;;;;;;;;;;;;;24.11;64.86;100236.31;5041588;28;1867;-45
2021/07/03 12:16:57;;;;;;;;;;;;;;;24.10;65.01;100240.88;5036937;28;1905;-45
2021/07/03 12:19:23;;;;;;;;;;;;;;;24.15;64.55;100237.59;5038887;28;1889;-46
2021/07/03 12:21:50;;;;;;;;;;;;;;;24.09;64.67;100236.47;5038769;28;1706;-45
2021/07/03 12:24:17;;;;;;;;;;;;;;;24.10;64.61;100223.84;5039441;28;1759;-46
2021/07/03 12:26:49;;;;;;;;;;;;;;;24.08;64.63;100231.28;5040970;28;2035;-46
2021/07/03 12:29:23;;;;;;;;;;;;;;;24.08;64.69;100237.50;5040885;28;1947;-45
2021/07/03 12:31:49;;;;;;;;;;;;;;;24.06;64.50;100226.06;5040386;28;1813;-45
2021/07/03 12:34:22;;;;;;;;;;;;;;;24.08;64.96;100225.88;5031401;28;1651;-45
2021/07/03 12:36:50;;;;;;;;;;;;;;;24.13;64.58;100216.22;5040863;28;1773;-45
2021/07/03 12:39:18;;;;;;;;;;;;;;;24.13;64.77;100227.00;5036730;28;1064;-46
2021/07/03 12:41:45;;;;;;;;;;;;;;;24.08;64.54;100210.50;5031556;28;2002;-45
2021/07/03 12:44:13;;;;;;;;;;;;;;;24.13;64.75;100223.44;5043425;28;1750;-46
2021/07/03 12:46:40;;;;;;;;;;;;;;;24.09;64.43;100217.56;5040436;28;1906;-45
2021/07/03 12:49:08;;;;;;;;;;;;;;;24.12;64.92;100233.41;5039389;28;1858;-45
2021/07/03 12:51:35;;;;;;;;;;;;;;;24.10;65.02;100221.97;5038407;28;1753;-46
2021/07/03 12:54:02;;;;;;;;;;;;;;;24.11;64.74;100212.81;5039135;28;1107;-45
2021/07/03 12:56:30;;;;;;;;;;;;;;;24.12;64.83;100205.56;5040434;28;1763;-46